Time;durP1;ratioP1;P1;durP2;ratioP2;P2;SDS_P1;SDS_P2;PMS_P1;PMS_P2;Temp;Humidity;BMP_temperature;BMP_pressure;BME280_temperature;BME280_humidity;BME280_pressure;Samples;Min_cycle;Max_cycle;Signal;HPM_P1;HPM_P2
2024/04/01 00:00:34;;;;;;;19.80;6.45;;;20.30;61.50;;;;;;5010058;28;20426;-50
2024/04/01 00:03:00;;;;;;;17.48;6.63;;;20.30;61.40;;;;;;5019601;28;20037;-51
2024/04/01 00:05:25;;;;;;;22.08;6.80;;;20.30;61.40;;;;;;5006902;28;20057;-53
2024/04/01 00:07:51;;;;;;;20.08;6.68;;;20.30;61.50;;;;;;4995357;28;20088;-54
2024/04/01 00:10:20;;;;;;;28.38;6.90;;;20.30;61.40;;;;;;5006891;28;20017;-54
2024/04/01 00:12:46;;;;;;;22.52;6.47;;;20.30;61.40;;;;;;5007615;28;20026;-54
2024/04/01 00:15:11;;;;;;;17.40;6.28;;;20.30;61.30;;;;;;5005764;28;20103;-53
2024/04/01 00:17:37;;;;;;;22.52;6.93;;;20.30;61.30;;;;;;5003984;28;20151;-55
2024/04/01 00:20:03;;;;;;;27.13;7.75;;;20.30;61.20;;;;;;5014628;28;20141;-53
2024/04/01 00:22:28;;;;;;;24.38;6.80;;;20.30;61.30;;;;;;5014443;28;20034;-53
2024/04/01 00:24:54;;;;;;;25.30;6.85;;;20.30;61.30;;;;;;4994258;28;20036;-53
2024/04/01 00:27:19;;;;;;;18.35;6.05;;;20.30;61.20;;;;;;5017889;28;20037;-56
2024/04/01 00:29:45;;;;;;;18.63;6.57;;;20.40;61.20;;;;;;4999158;28;20428;-53
2024/04/01 00:32:10;;;;;;;22.17;6.53;;;20.30;61.10;;;;;;4999277;28;20022;-53
2024/04/01 00:34:36;;;;;;;19.27;7.10;;;20.30;61.10;;;;;;5007477;28;20026;-54
2024/04/01 00:37:01;;;;;;;21.98;6.47;;;20.30;61.10;;;;;;5000883;28;20026;-54
2024/04/01 00:39:27;;;;;;;21.73;6.43;;;20.30;61.00;;;;;;4993707;28;20034;-53
2024/04/01 00:41:53;;;;;;;24.08;6.85;;;20.30;61.00;;;;;;5010480;28;20040;-53
2024/04/01 00:44:18;;;;;;;23.33;6.10;;;20.30;60.90;;;;;;5001082;28;20439;-54
2024/04/01 00:46:44;;;;;;;20.63;6.72;;;20.30;60.90;;;;;;5012612;28;20030;-54
2024/04/01 00:49:10;;;;;;;26.20;6.63;;;20.30;61.00;;;;;;4998122;28;20034;-53
2024/04/01 00:51:37;;;;;;;26.45;7.35;;;20.30;61.00;;;;;;5021568;28;20113;-53
2024/04/01 00:54:03;;;;;;;23.50;6.28;;;20.30;61.00;;;;;;5016731;28;20037;-55
2024/04/01 00:56:30;;;;;;;23.10;6.35;;;20.30;61.60;;;;;;5000236;28;20036;-54
2024/04/01 00:58:59;;;;;;;21.58;6.47;;;20.30;61.00;;;;;;5003973;28;20884;-53
2024/04/01 01:01:26;;;;;;;20.52;6.15;;;20.30;61.00;;;;;;5006511;28;20096;-55
2024/04/01 01:03:51;;;;;;;21.08;6.32;;;20.30;60.90;;;;;;5003318;28;20038;-52
2024/04/01 01:06:21;;;;;;;18.90;6.15;;;20.30;60.90;;;;;;4995499;28;20096;-52
2024/04/01 01:08:47;;;;;;;19.50;6.10;;;20.30;60.90;;;;;;4997566;28;20029;-53
2024/04/01 01:11:13;;;;;;;22.00;5.82;;;20.30;60.80;;;;;;4997033;28;20034;-53
2024/04/01 01:13:38;;;;;;;21.92;6.15;;;20.30;60.90;;;;;;5005679;28;20291;-55
2024/04/01 01:16:04;;;;;;;17.73;7.15;;;20.30;60.90;;;;;;5010586;28;20083;-54
2024/04/01 01:18:30;;;;;;;20.88;6.50;;;20.30;60.90;;;;;;5009530;28;20030;-53
2024/04/01 01:20:55;;;;;;;17.02;5.78;;;20.30;61.50;;;;;;5013485;28;20034;-55
2024/04/01 01:23:21;;;;;;;21.92;5.90;;;20.30;60.90;;;;;;5015762;28;20026;-55
2024/04/01 01:25:46;;;;;;;16.73;6.03;;;20.30;60.90;;;;;;5008729;28;20837;-53
2024/04/01 01:28:12;;;;;;;16.08;6.38;;;20.20;60.80;;;;;;5010390;28;20017;-53
2024/04/01 01:30:37;;;;;;;18.17;6.40;;;20.30;60.90;;;;;;5014679;28;20432;-53
2024/04/01 01:33:06;;;;;;;19.90;6.13;;;20.30;60.90;;;;;;5003352;28;20029;-55
2024/04/01 01:35:35;;;;;;;17.05;6.07;;;20.30;60.90;;;;;;5000544;28;20095;-54
2024/04/01 01:38:01;;;;;;;15.93;5.93;;;20.20;60.90;;;;;;5003652;28;20033;-55
2024/04/01 01:40:27;;;;;;;16.83;5.85;;;20.20;60.90;;;;;;5017137;28;20026;-53
2024/04/01 01:42:52;;;;;;;20.17;6.00;;;20.20;60.90;;;;;;5010424;28;20045;-53
2024/04/01 01:45:18;;;;;;;15.88;5.45;;;20.20;60.90;;;;;;4998122;28;20546;-52
2024/04/01 01:47:43;;;;;;;15.85;5.60;;;20.20;60.90;;;;;;4998845;28;20033;-53
2024/04/01 01:50:09;;;;;;;20.23;5.50;;;20.20;60.90;;;;;;5007057;23;20127;-50
2024/04/01 01:52:35;;;;;;;23.38;5.50;;;20.20;60.90;;;;;;5004634;28;21771;-53
2024/04/01 01:55:01;;;;;;;21.58;5.43;;;20.20;60.90;;;;;;4988059;28;20038;-50
2024/04/01 01:57:28;;;;;;;19.23;5.53;;;20.20;60.90;;;;;;5001748;28;20397;-53
2024/04/01 01:59:53;;;;;;;11.30;4.93;;;20.20;60.90;;;;;;5010326;28;20034;-51
2024/04/01 02:02:19;;;;;;;19.20;6.25;;;20.20;60.90;;;;;;5012375;28;20044;-51
2024/04/01 02:04:45;;;;;;;15.98;5.15;;;20.20;60.90;;;;;;5006136;28;20053;-49
2024/04/01 02:07:10;;;;;;;20.42;5.20;;;20.20;60.90;;;;;;5007885;28;20037;-53
2024/04/01 02:09:36;;;;;;;16.77;5.35;;;20.20;60.90;;;;;;5013051;28;20085;-50
2024/04/01 02:12:07;;;;;;;15.65;5.47;;;20.20;60.80;;;;;;5011766;28;20037;-57
2024/04/01 02:14:33;;;;;;;15.95;4.70;;;20.20;60.80;;;;;;5005804;28;20034;-58
2024/04/01 02:16:59;;;;;;;12.05;4.80;;;20.20;60.80;;;;;;5009185;28;20037;-58
2024/04/01 02:19:24;;;;;;;14.07;5.10;;;20.20;60.70;;;;;;5011245;28;20033;-56
2024/04/01 02:21:50;;;;;;;12.70;4.57;;;20.20;60.80;;;;;;5011323;28;20033;-49
2024/04/01 02:24:17;;;;;;;13.05;4.40;;;20.20;60.70;;;;;;5014607;28;20405;-48
2024/04/01 02:26:47;;;;;;;19.27;5.00;;;20.20;60.70;;;;;;5012088;28;20037;-56
2024/04/01 02:29:12;;;;;;;16.35;3.90;;;20.20;60.70;;;;;;5015820;28;20037;-48
2024/04/01 02:31:38;;;;;;;10.55;3.60;;;20.20;60.70;;;;;;5019597;28;20029;-54
2024/04/01 02:34:04;;;;;;;12.95;4.20;;;20.20;60.70;;;;;;4995765;28;20041;-48
2024/04/01 02:36:29;;;;;;;14.05;4.90;;;20.20;60.70;;;;;;4969167;28;20072;-48
2024/04/01 02:38:55;;;;;;;10.93;4.07;;;20.20;60.70;;;;;;5013335;28;20041;-49
2024/04/01 02:41:20;;;;;;;13.05;3.85;;;20.20;60.70;;;;;;5017465;28;20658;-49
2024/04/01 02:43:46;;;;;;;12.02;3.80;;;20.10;60.70;;;;;;5019915;28;20113;-50
2024/04/01 02:46:14;;;;;;;14.30;4.18;;;20.20;60.80;;;;;;4987741;28;20026;-49
2024/04/01 02:48:39;;;;;;;12.75;4.35;;;20.10;60.70;;;;;;4988431;28;20033;-50
2024/04/01 02:51:05;;;;;;;13.60;4.60;;;20.10;60.80;;;;;;5019366;28;20045;-48
2024/04/01 02:53:30;;;;;;;12.35;4.03;;;20.20;60.80;;;;;;5012084;28;20044;-49
2024/04/01 02:55:56;;;;;;;13.02;4.03;;;20.10;60.70;;;;;;4994133;28;20326;-50
2024/04/01 02:58:22;;;;;;;12.40;4.25;;;20.10;60.70;;;;;;5019347;28;20025;-51
2024/04/01 03:00:47;;;;;;;11.80;3.65;;;20.10;60.70;;;;;;5012265;28;20040;-49
2024/04/01 03:03:13;;;;;;;10.40;3.20;;;20.10;60.70;;;;;;5012014;28;20685;-48
2024/04/01 03:05:39;;;;;;;11.65;3.60;;;20.10;60.70;;;;;;5007887;28;20121;-50
2024/04/01 03:08:08;;;;;;;13.02;3.90;;;20.10;60.70;;;;;;5009027;28;20538;-47
2024/04/01 03:10:35;;;;;;;16.55;3.80;;;20.10;60.70;;;;;;5008772;28;20109;-46
2024/04/01 03:13:07;;;;;;;13.70;3.58;;;20.10;60.60;;;;;;4991370;28;20030;-49
2024/04/01 03:15:34;;;;;;;11.00;3.53;;;20.10;60.60;;;;;;5005355;28;20116;-50
2024/04/01 03:18:00;;;;;;;13.52;3.15;;;20.10;60.60;;;;;;5014535;28;20680;-50
2024/04/01 03:20:26;;;;;;;14.27;3.83;;;20.10;60.60;;;;;;5015629;28;20545;-52
2024/04/01 03:22:51;;;;;;;11.45;3.67;;;20.10;60.60;;;;;;4998455;28;20028;-50
2024/04/01 03:25:17;;;;;;;12.43;3.55;;;20.10;60.60;;;;;;5012030;28;20794;-49
2024/04/01 03:27:42;;;;;;;20.95;4.35;;;20.10;60.60;;;;;;5013610;28;20056;-52
2024/04/01 03:30:09;;;;;;;15.68;3.53;;;20.10;60.60;;;;;;5015226;28;20033;-52
2024/04/01 03:32:35;;;;;;;9.68;2.97;;;20.10;60.60;;;;;;4987620;28;20518;-52
2024/04/01 03:35:01;;;;;;;10.98;3.40;;;20.10;60.60;;;;;;5008084;28;20470;-51
2024/04/01 03:37:27;;;;;;;11.27;2.92;;;20.10;60.50;;;;;;4998338;28;20523;-48
2024/04/01 03:39:53;;;;;;;16.30;3.58;;;20.20;60.60;;;;;;5017777;28;20486;-52
2024/04/01 03:42:18;;;;;;;12.75;3.42;;;20.10;60.60;;;;;;5012253;28;20034;-56
2024/04/01 03:44:44;;;;;;;11.40;3.47;;;20.10;60.50;;;;;;4996158;28;20025;-56
2024/04/01 03:47:13;;;;;;;7.40;2.80;;;20.10;60.60;;;;;;5016028;28;20148;-53
2024/04/01 03:49:41;;;;;;;9.40;3.20;;;20.10;60.70;;;;;;5014548;28;20037;-48
2024/04/01 03:52:07;;;;;;;10.98;3.70;;;20.10;60.60;;;;;;5017576;28;20025;-49
2024/04/01 03:54:34;;;;;;;10.48;3.08;;;20.10;60.70;;;;;;5017896;28;20594;-53
2024/04/01 03:57:00;;;;;;;7.88;2.83;;;20.10;60.60;;;;;;5022104;28;20037;-52
2024/04/01 03:59:25;;;;;;;9.52;3.20;;;20.10;60.60;;;;;;5019028;28;20033;-51
2024/04/01 04:01:50;;;;;;;9.18;2.83;;;20.10;60.50;;;;;;5006042;28;21240;-53
2024/04/01 04:04:17;;;;;;;10.20;3.03;;;20.10;60.50;;;;;;5017182;28;20526;-53
2024/04/01 04:06:42;;;;;;;12.52;3.28;;;20.10;60.50;;;;;;5014475;28;20036;-54
2024/04/01 04:09:17;;;;;;;13.35;3.17;;;20.10;60.70;;;;;;4994340;28;20042;-52
2024/04/01 04:11:49;;;;;;;7.57;3.33;;;20.10;60.50;;;;;;5019633;28;20041;-53
2024/04/01 04:14:17;;;;;;;12.75;3.97;;;20.00;60.50;;;;;;5015758;28;20553;-52
2024/04/01 04:16:46;;;;;;;11.90;3.88;;;20.10;60.50;;;;;;5017444;28;20087;-53
2024/04/01 04:19:13;;;;;;;10.02;3.10;;;20.00;60.40;;;;;;5018754;28;20034;-48
2024/04/01 04:21:39;;;;;;;11.63;3.72;;;20.10;60.50;;;;;;5015424;28;20036;-51
2024/04/01 04:24:05;;;;;;;11.20;3.00;;;20.10;60.60;;;;;;4998286;28;20038;-50
2024/04/01 04:26:30;;;;;;;10.60;3.38;;;20.10;60.50;;;;;;5006603;28;20033;-55
2024/04/01 04:28:56;;;;;;;11.13;3.35;;;20.00;60.40;;;;;;5021242;28;20021;-54
2024/04/01 04:31:22;;;;;;;9.13;3.38;;;20.00;60.50;;;;;;5015261;28;20513;-50
2024/04/01 04:33:47;;;;;;;7.25;2.88;;;20.00;60.40;;;;;;5019630;28;20044;-51
2024/04/01 04:36:13;;;;;;;8.90;3.33;;;20.00;60.50;;;;;;5019442;28;20025;-53
2024/04/01 04:38:39;;;;;;;14.35;4.28;;;20.00;60.40;;;;;;5016688;28;20030;-54
2024/04/01 04:41:04;;;;;;;11.48;3.45;;;20.00;60.40;;;;;;5020954;28;20037;-50
2024/04/01 04:43:31;;;;;;;7.28;3.05;;;20.10;60.40;;;;;;5019108;28;20553;-47
2024/04/01 04:45:59;;;;;;;11.13;3.60;;;20.00;60.40;;;;;;5018598;28;20030;-56
2024/04/01 04:48:25;;;;;;;14.60;3.63;;;20.00;60.40;;;;;;5014097;28;20079;-50
2024/04/01 04:50:51;;;;;;;11.02;3.60;;;20.10;60.50;;;;;;4997306;28;20862;-54
2024/04/01 04:53:16;;;;;;;9.70;3.05;;;20.00;60.30;;;;;;5011635;28;20037;-55
2024/04/01 04:55:42;;;;;;;10.57;3.50;;;20.00;60.30;;;;;;5019377;28;20041;-52
2024/04/01 04:58:09;;;;;;;12.38;3.55;;;20.00;60.40;;;;;;5020482;28;20958;-59
2024/04/01 05:00:35;;;;;;;17.00;3.65;;;20.10;60.40;;;;;;5026826;28;20107;-57
2024/04/01 05:03:00;;;;;;;13.00;3.95;;;20.00;60.30;;;;;;5004913;28;20049;-58
2024/04/01 05:05:26;;;;;;;13.02;3.20;;;20.00;60.30;;;;;;5019712;28;20030;-61
2024/04/01 05:07:51;;;;;;;11.60;3.03;;;20.10;60.40;;;;;;5014737;28;20041;-49
2024/04/01 05:10:17;;;;;;;11.13;3.53;;;20.10;60.30;;;;;;5022156;28;20043;-59
2024/04/01 05:12:42;;;;;;;12.75;3.55;;;20.00;60.20;;;;;;5024851;28;20037;-47
2024/04/01 05:15:08;;;;;;;10.10;3.08;;;20.00;60.20;;;;;;5024814;28;20043;-46
2024/04/01 05:17:34;;;;;;;9.07;3.55;;;20.00;60.30;;;;;;5016145;28;20507;-54
2024/04/01 05:20:00;;;;;;;10.98;3.63;;;20.00;60.30;;;;;;5015924;28;20530;-50
2024/04/01 05:22:26;;;;;;;9.73;3.67;;;20.00;60.30;;;;;;5019272;28;20033;-52
2024/04/01 05:24:52;;;;;;;14.00;3.50;;;20.00;60.20;;;;;;5021522;28;20034;-52
2024/04/01 05:27:18;;;;;;;17.20;3.67;;;20.00;60.30;;;;;;5018213;28;20048;-48
2024/04/01 05:29:43;;;;;;;13.75;3.75;;;20.00;60.20;;;;;;5023830;28;20025;-61
2024/04/01 05:32:09;;;;;;;8.82;2.92;;;20.00;60.30;;;;;;5021859;28;20406;-55
2024/04/01 05:34:37;;;;;;;12.75;3.08;;;20.00;60.30;;;;;;5019472;28;20954;-52
2024/04/01 05:37:05;;;;;;;11.52;4.03;;;20.00;60.40;;;;;;5014680;28;20096;-47
2024/04/01 05:39:31;;;;;;;10.60;3.85;;;20.00;60.30;;;;;;5020307;28;20030;-46
2024/04/01 05:41:56;;;;;;;12.45;2.92;;;20.00;60.30;;;;;;5020084;28;20029;-47
2024/04/01 05:44:22;;;;;;;12.23;2.85;;;20.00;60.30;;;;;;5014399;28;20037;-50
2024/04/01 05:46:47;;;;;;;9.70;3.20;;;20.00;60.30;;;;;;5023283;28;20106;-49
2024/04/01 05:49:13;;;;;;;8.48;3.25;;;20.00;60.30;;;;;;5021173;28;20046;-50
2024/04/01 05:51:38;;;;;;;13.38;3.55;;;20.00;60.30;;;;;;5002245;28;20049;-48
2024/04/01 05:54:04;;;;;;;11.10;3.50;;;20.00;60.30;;;;;;5018992;28;20062;-55
2024/04/01 05:56:30;;;;;;;14.40;3.25;;;20.00;60.20;;;;;;5021093;28;20029;-53
2024/04/01 05:58:55;;;;;;;10.40;3.83;;;20.00;60.90;;;;;;5020753;28;20494;-52
2024/04/01 06:01:21;;;;;;;9.10;3.45;;;20.00;60.30;;;;;;5015132;28;20371;-52
2024/04/01 06:03:46;;;;;;;8.55;2.80;;;20.00;60.30;;;;;;5015926;28;20713;-54
2024/04/01 06:06:12;;;;;;;12.40;3.30;;;20.00;60.30;;;;;;5015543;28;20501;-51
2024/04/01 06:08:37;;;;;;;8.93;2.75;;;20.00;60.40;;;;;;5013148;28;20045;-48
2024/04/01 06:11:03;;;;;;;11.27;2.50;;;20.00;60.40;;;;;;5016026;28;20659;-50
2024/04/01 06:13:28;;;;;;;10.75;3.30;;;20.00;60.40;;;;;;5017290;28;20048;-49
2024/04/01 06:15:54;;;;;;;9.95;3.13;;;20.00;60.40;;;;;;5003427;28;20038;-51
2024/04/01 06:18:19;;;;;;;17.00;3.25;;;20.00;60.70;;;;;;5014970;28;20029;-49
2024/04/01 06:20:45;;;;;;;8.25;2.83;;;20.00;60.60;;;;;;5019066;28;20501;-48
2024/04/01 06:23:10;;;;;;;9.40;2.85;;;20.10;60.60;;;;;;5010794;28;20029;-50
2024/04/01 06:25:46;;;;;;;16.13;3.45;;;20.00;60.60;;;;;;5017757;28;20105;-47
2024/04/01 06:28:12;;;;;;;10.40;2.90;;;20.10;60.80;;;;;;5016005;28;20025;-50
2024/04/01 06:30:37;;;;;;;15.20;3.88;;;20.00;60.80;;;;;;5017669;28;20045;-50
2024/04/01 06:33:03;;;;;;;11.45;3.05;;;20.00;60.80;;;;;;5003782;28;20053;-49
2024/04/01 06:35:29;;;;;;;10.88;2.95;;;20.00;60.80;;;;;;4982661;28;20073;-49
2024/04/01 06:37:54;;;;;;;11.70;3.25;;;20.00;60.90;;;;;;4980095;28;20114;-49
2024/04/01 06:40:20;;;;;;;15.45;4.18;;;20.00;60.80;;;;;;5004393;28;20732;-50
2024/04/01 06:42:45;;;;;;;19.50;4.05;;;20.10;61.20;;;;;;4993734;28;20030;-49
2024/04/01 06:45:11;;;;;;;17.55;4.50;;;20.10;61.80;;;;;;4988638;28;20729;-49
2024/04/01 06:47:36;;;;;;;14.57;4.45;;;20.10;61.10;;;;;;4990121;28;20029;-51
2024/04/01 06:50:02;;;;;;;10.48;4.10;;;20.10;61.10;;;;;;4958745;28;20046;-52
2024/04/01 06:52:28;;;;;;;15.38;3.97;;;20.10;61.20;;;;;;5001767;28;20040;-46
2024/04/01 06:54:54;;;;;;;13.75;4.10;;;20.00;61.00;;;;;;5008932;28;20131;-50
2024/04/01 06:57:19;;;;;;;13.90;4.82;;;20.00;61.00;;;;;;5015661;28;20029;-57
2024/04/01 06:59:45;;;;;;;10.75;4.03;;;20.10;61.00;;;;;;5014659;28;20033;-56
2024/04/01 07:02:11;;;;;;;11.48;3.47;;;20.00;60.80;;;;;;4993641;28;20026;-50
2024/04/01 07:04:36;;;;;;;13.57;4.65;;;20.10;60.80;;;;;;5013469;28;20030;-49
2024/04/01 07:07:02;;;;;;;11.20;4.15;;;20.10;60.80;;;;;;5014681;28;20418;-50
2024/04/01 07:09:28;;;;;;;11.45;3.95;;;20.00;60.60;;;;;;5014508;28;20101;-58
2024/04/01 07:11:54;;;;;;;15.20;4.35;;;20.00;60.60;;;;;;4996301;28;20179;-55
2024/04/01 07:14:19;;;;;;;12.43;4.18;;;20.00;60.70;;;;;;5014875;28;20036;-57
2024/04/01 07:16:45;;;;;;;9.00;3.60;;;20.00;60.70;;;;;;5021574;28;20025;-48
2024/04/01 07:19:11;;;;;;;12.13;3.97;;;20.00;60.70;;;;;;5021143;28;20025;-50
2024/04/01 07:21:36;;;;;;;9.77;3.97;;;20.00;60.60;;;;;;5012724;28;20488;-51
2024/04/01 07:24:02;;;;;;;11.20;3.50;;;20.00;60.50;;;;;;5013918;28;20030;-56
2024/04/01 07:26:27;;;;;;;12.65;3.85;;;20.00;60.50;;;;;;5003274;28;20371;-51
2024/04/01 07:28:52;;;;;;;10.55;3.85;;;20.00;60.50;;;;;;5020648;28;20025;-49
2024/04/01 07:31:18;;;;;;;13.68;4.00;;;20.00;60.50;;;;;;5021009;28;20026;-56
2024/04/01 07:33:43;;;;;;;10.68;3.40;;;20.00;60.50;;;;;;5022265;28;20032;-55
2024/04/01 07:36:09;;;;;;;14.07;5.50;;;20.00;60.70;;;;;;5001866;28;20375;-45
2024/04/01 07:38:34;;;;;;;16.15;6.32;;;20.00;60.80;;;;;;5017692;28;20030;-52
2024/04/01 07:41:00;;;;;;;18.02;6.35;;;20.00;61.30;;;;;;5018307;28;20512;-58
2024/04/01 07:43:26;;;;;;;15.85;6.80;;;20.00;61.60;;;;;;5020140;28;20108;-57
2024/04/01 07:45:51;;;;;;;14.00;5.25;;;20.10;61.50;;;;;;5013817;28;20113;-47
2024/04/01 07:48:18;;;;;;;15.35;5.45;;;20.10;61.50;;;;;;5015378;28;20029;-56
2024/04/01 07:50:43;;;;;;;14.68;5.45;;;20.10;61.70;;;;;;5020346;28;20577;-48
2024/04/01 07:53:10;;;;;;;17.15;5.80;;;20.10;61.70;;;;;;5013160;28;20112;-52
2024/04/01 07:55:35;;;;;;;13.93;5.82;;;20.10;61.70;;;;;;4976177;28;20048;-55
2024/04/01 07:58:01;;;;;;;19.27;5.63;;;20.10;61.20;;;;;;5010277;28;20449;-50
2024/04/01 08:00:26;;;;;;;19.67;5.15;;;20.00;60.50;;;;;;5015866;28;20041;-49
2024/04/01 08:02:52;;;;;;;20.50;4.95;;;20.00;60.20;;;;;;5010879;28;20397;-51
2024/04/01 08:05:17;;;;;;;19.02;6.00;;;20.00;60.20;;;;;;5002576;28;20045;-54
2024/04/01 08:07:43;;;;;;;13.27;5.80;;;20.00;60.00;;;;;;5009707;28;20037;-58
2024/04/01 08:10:08;;;;;;;14.05;4.68;;;20.00;60.00;;;;;;4996720;28;20033;-58
2024/04/01 08:12:34;;;;;;;15.32;5.07;;;20.00;59.80;;;;;;5008695;28;20041;-52
2024/04/01 08:14:59;;;;;;;17.85;4.72;;;20.10;59.90;;;;;;5007563;28;20037;-52
2024/04/01 08:17:25;;;;;;;13.85;4.97;;;20.10;59.90;;;;;;5019306;28;20478;-58
2024/04/01 08:19:50;;;;;;;17.50;4.97;;;20.00;59.70;;;;;;5017829;28;20032;-49
2024/04/01 08:22:16;;;;;;;17.33;4.90;;;20.10;60.00;;;;;;5017755;28;20719;-51
2024/04/01 08:24:41;;;;;;;12.18;4.50;;;20.10;60.20;;;;;;5024521;28;20025;-49
2024/04/01 08:27:07;;;;;;;19.63;5.20;;;20.10;59.90;;;;;;5000962;28;20037;-54
2024/04/01 08:29:32;;;;;;;18.55;4.97;;;20.10;59.80;;;;;;5019177;28;20048;-48
2024/04/01 08:31:58;;;;;;;15.30;4.35;;;20.10;59.80;;;;;;5020221;28;20032;-48
2024/04/01 08:34:24;;;;;;;17.92;4.38;;;20.10;60.30;;;;;;5017492;28;20077;-53
2024/04/01 08:36:49;;;;;;;15.73;4.70;;;20.00;60.50;;;;;;5017110;28;20138;-53
2024/04/01 08:39:15;;;;;;;16.20;4.22;;;20.00;60.80;;;;;;5023571;28;20045;-47
2024/04/01 08:41:54;;;;;;;15.50;4.45;;;19.90;60.90;;;;;;5017774;28;20064;-50
2024/04/01 08:44:23;;;;;;;15.93;4.25;;;19.90;61.00;;;;;;5010565;28;20220;-53
2024/04/01 08:46:49;;;;;;;13.52;4.95;;;19.90;61.00;;;;;;5016928;28;20036;-52
2024/04/01 08:49:19;;;;;;;12.88;3.97;;;19.90;61.00;;;;;;5019748;28;20173;-53
2024/04/01 08:51:46;;;;;;;14.23;3.92;;;19.90;61.00;;;;;;5005499;28;20044;-54
2024/04/01 08:54:12;;;;;;;13.60;4.15;;;19.90;61.10;;;;;;5011943;28;20073;-52
2024/04/01 08:56:40;;;;;;;13.75;4.35;;;19.90;61.10;;;;;;5016845;28;20838;-54
2024/04/01 08:59:07;;;;;;;13.95;3.72;;;19.90;61.00;;;;;;5022098;28;20061;-50
2024/04/01 09:01:33;;;;;;;12.75;4.22;;;19.90;60.90;;;;;;5026347;28;20507;-53
2024/04/01 09:03:59;;;;;;;10.93;3.75;;;20.00;61.00;;;;;;5024022;28;20030;-50
2024/04/01 09:06:25;;;;;;;8.27;3.50;;;20.00;60.90;;;;;;5020894;28;20410;-48
2024/04/01 09:08:53;;;;;;;10.35;3.97;;;20.00;60.90;;;;;;5016718;28;20104;-51
2024/04/01 09:11:19;;;;;;;8.88;3.30;;;20.00;60.80;;;;;;5023085;28;20176;-51
2024/04/01 09:13:49;;;;;;;9.73;3.60;;;20.00;60.90;;;;;;5026019;28;20029;-54
2024/04/01 09:16:22;;;;;;;15.13;3.72;;;20.00;60.80;;;;;;5006715;28;20085;-50
2024/04/01 09:18:49;;;;;;;11.50;3.47;;;19.90;60.80;;;;;;5002520;28;20483;-53
2024/04/01 09:21:17;;;;;;;7.68;3.30;;;20.00;60.80;;;;;;5021336;28;20030;-54
2024/04/01 09:23:43;;;;;;;10.52;3.60;;;20.00;60.90;;;;;;5006782;28;20029;-52
2024/04/01 09:26:09;;;;;;;9.75;3.40;;;20.00;60.90;;;;;;5014510;28;20033;-47
2024/04/01 09:28:34;;;;;;;7.70;3.78;;;20.00;61.00;;;;;;5023635;28;20029;-50
2024/04/01 09:31:00;;;;;;;9.68;2.92;;;20.00;60.90;;;;;;5021359;28;20029;-47
2024/04/01 09:33:25;;;;;;;11.27;3.78;;;20.00;60.90;;;;;;5013720;28;20397;-52
2024/04/01 09:35:51;;;;;;;10.77;3.63;;;20.00;61.00;;;;;;5003949;28;20560;-50
2024/04/01 09:38:17;;;;;;;11.68;3.47;;;20.00;61.00;;;;;;5014205;28;20045;-51
2024/04/01 09:40:49;;;;;;;6.95;3.25;;;20.00;61.00;;;;;;5028953;28;20025;-51
2024/04/01 09:43:20;;;;;;;17.02;4.15;;;20.00;61.00;;;;;;5029451;28;20657;-51
2024/04/01 09:45:46;;;;;;;9.60;2.80;;;20.00;61.00;;;;;;5013998;28;20499;-54
2024/04/01 09:48:13;;;;;;;8.57;2.80;;;20.00;61.00;;;;;;5012808;28;20113;-54
2024/04/01 09:50:41;;;;;;;7.80;3.17;;;20.00;61.00;;;;;;5008997;28;20144;-50
2024/04/01 09:53:07;;;;;;;7.45;2.72;;;20.00;61.60;;;;;;5026441;28;20053;-48
2024/04/01 09:55:49;;;;;;;8.23;2.92;;;20.00;61.00;;;;;;5026024;28;20041;-54
2024/04/01 09:58:23;;;;;;;6.78;2.72;;;20.00;61.00;;;;;;5025443;28;20036;-49
2024/04/01 10:01:09;;;;;;;9.98;2.88;;;20.00;61.00;;;;;;5025873;28;20033;-55
2024/04/01 10:04:06;;;;;;;11.02;2.65;;;20.00;61.00;;;;;;5024742;28;20030;-49
2024/04/01 10:06:31;;;;;;;8.30;3.30;;;20.00;61.00;;;;;;5026067;28;20021;-55
2024/04/01 10:09:15;;;;;;;7.72;3.00;;;20.00;61.10;;;;;;5026910;28;20025;-52
2024/04/01 10:12:08;;;;;;;7.88;2.60;;;20.00;61.00;;;;;;5027279;28;20033;-53
2024/04/01 10:15:17;;;;;;;7.82;2.92;;;20.00;61.10;;;;;;5008567;28;20140;-54
2024/04/01 10:17:57;;;;;;;6.60;2.80;;;20.00;61.00;;;;;;5017997;28;20059;-48
2024/04/01 10:20:28;;;;;;;6.38;2.60;;;20.00;61.10;;;;;;5007557;28;20041;-52
2024/04/01 10:23:13;;;;;;;7.45;3.08;;;20.00;61.10;;;;;;5021825;28;20437;-49
2024/04/01 10:26:05;;;;;;;6.85;2.42;;;20.00;61.30;;;;;;5018625;28;20574;-48
2024/04/01 10:29:18;;;;;;;4.35;2.40;;;20.00;61.20;;;;;;5013729;28;20033;-53
2024/04/01 10:32:27;;;;;;;4.30;2.10;;;20.00;61.20;;;;;;5003493;28;20022;-48
2024/04/01 10:35:33;;;;;;;8.10;3.00;;;20.00;61.20;;;;;;5012683;28;20041;-52
2024/04/01 10:38:07;;;;;;;3.65;2.03;;;20.00;61.20;;;;;;4991167;28;20029;-51
2024/04/01 10:40:54;;;;;;;5.20;2.70;;;20.00;61.30;;;;;;4997231;28;20026;-51
2024/04/01 10:43:41;;;;;;;8.57;2.33;;;20.00;61.20;;;;;;4996002;28;20087;-52
2024/04/01 10:46:25;;;;;;;5.15;2.67;;;20.00;61.20;;;;;;5013956;28;20147;-53
2024/04/01 10:49:28;;;;;;;4.82;2.15;;;20.00;61.30;;;;;;5015066;28;20037;-53
2024/04/01 10:52:12;;;;;;;6.32;2.58;;;20.00;61.30;;;;;;5012705;28;20053;-52
2024/04/01 10:55:01;;;;;;;5.15;2.50;;;20.00;61.30;;;;;;5021462;28;20033;-56
2024/04/01 10:58:06;;;;;;;5.00;2.30;;;20.00;61.30;;;;;;5017288;28;20029;-49
2024/04/01 11:01:05;;;;;;;4.50;2.03;;;20.00;61.30;;;;;;5003423;28;20083;-54
2024/04/01 11:03:40;;;;;;;5.35;2.60;;;20.00;61.30;;;;;;4989122;28;20033;-51
2024/04/01 11:06:31;;;;;;;3.72;2.33;;;20.00;61.30;;;;;;5018871;28;20652;-49
2024/04/01 11:09:35;;;;;;;3.75;2.20;;;20.00;61.30;;;;;;5018868;28;20120;-49
2024/04/01 11:12:21;;;;;;;4.53;2.03;;;20.00;61.30;;;;;;5016424;28;20055;-53
2024/04/01 11:14:50;;;;;;;4.28;2.38;;;20.00;61.30;;;;;;5004635;28;20107;-53
2024/04/01 11:17:17;;;;;;;6.28;1.77;;;20.00;61.40;;;;;;5002241;28;20376;-51
2024/04/01 11:20:07;;;;;;;4.22;2.10;;;20.00;61.30;;;;;;5020451;28;20038;-52
2024/04/01 11:22:47;;;;;;;4.95;2.17;;;20.00;61.30;;;;;;5011416;28;20030;-49
2024/04/01 11:25:30;;;;;;;3.92;2.00;;;20.00;61.30;;;;;;4999412;28;20474;-48
2024/04/01 11:28:17;;;;;;;4.20;2.10;;;20.00;61.30;;;;;;5009633;28;20040;-50
2024/04/01 11:30:44;;;;;;;4.68;1.83;;;20.00;61.30;;;;;;5006954;28;20101;-50
2024/04/01 11:33:12;;;;;;;5.63;2.50;;;20.00;61.30;;;;;;5024412;28;20036;-52
2024/04/01 11:35:47;;;;;;;3.38;1.95;;;20.00;61.30;;;;;;5018117;28;20044;-48
2024/04/01 11:38:42;;;;;;;4.40;2.30;;;20.10;61.50;;;;;;5022978;28;20029;-53
2024/04/01 11:41:10;;;;;;;5.72;2.00;;;20.00;61.40;;;;;;5020085;28;20043;-48
2024/04/01 11:43:38;;;;;;;4.35;2.10;;;20.00;61.30;;;;;;5019219;28;20672;-51
2024/04/01 11:46:07;;;;;;;3.42;1.90;;;20.00;61.40;;;;;;5021747;28;20033;-52
2024/04/01 11:48:33;;;;;;;3.10;1.52;;;20.00;61.40;;;;;;5025415;28;20049;-49
2024/04/01 11:51:00;;;;;;;5.13;2.13;;;20.10;61.40;;;;;;5022241;28;20036;-51
2024/04/01 11:53:25;;;;;;;3.65;1.92;;;20.00;61.50;;;;;;5022509;28;20026;-51
2024/04/01 11:56:02;;;;;;;4.75;1.88;;;20.00;61.50;;;;;;5003322;28;20116;-51
2024/04/01 11:58:27;;;;;;;3.40;1.67;;;20.10;61.50;;;;;;5025544;28;20498;-50
2024/04/01 12:00:54;;;;;;;4.50;1.98;;;20.00;61.40;;;;;;5025684;28;20103;-49
2024/04/01 12:03:21;;;;;;;2.70;1.75;;;20.00;61.40;;;;;;5022266;28;20030;-50
2024/04/01 12:05:49;;;;;;;4.18;1.90;;;20.00;61.50;;;;;;5017703;28;20037;-50
2024/04/01 12:08:15;;;;;;;3.15;1.45;;;20.00;62.10;;;;;;5023496;28;20038;-50
2024/04/01 12:10:45;;;;;;;3.55;2.10;;;20.00;61.40;;;;;;5018083;28;20045;-49
2024/04/01 12:13:10;;;;;;;4.00;1.70;;;20.00;61.40;;;;;;5022444;28;20554;-49
2024/04/01 12:15:37;;;;;;;4.05;1.95;;;20.00;61.50;;;;;;5014672;28;20117;-48
2024/04/01 12:18:05;;;;;;;3.28;1.48;;;20.10;61.50;;;;;;5018174;28;20026;-52
2024/04/01 12:20:37;;;;;;;3.45;1.60;;;20.00;61.40;;;;;;5018880;28;20489;-54
2024/04/01 12:23:07;;;;;;;3.28;1.50;;;20.00;61.50;;;;;;4997133;28;20040;-54
2024/04/01 12:25:34;;;;;;;3.72;1.40;;;20.00;61.50;;;;;;4995596;28;20033;-50
2024/04/01 12:27:59;;;;;;;3.13;1.65;;;20.00;61.50;;;;;;5015356;28;20096;-52
2024/04/01 12:30:28;;;;;;;2.95;1.75;;;20.00;61.50;;;;;;5017671;28;20650;-52
2024/04/01 12:32:56;;;;;;;2.45;1.40;;;20.00;61.40;;;;;;5019259;28;20026;-50
2024/04/01 12:35:23;;;;;;;2.50;1.60;;;20.10;61.40;;;;;;5021307;28;20643;-53
2024/04/01 12:37:50;;;;;;;3.33;1.42;;;20.10;61.40;;;;;;5017757;28;20057;-57
2024/04/01 12:40:17;;;;;;;2.72;1.50;;;20.10;61.40;;;;;;5019366;28;20499;-50
2024/04/01 12:42:44;;;;;;;3.22;1.48;;;20.10;61.30;;;;;;5022216;28;20041;-51
2024/04/01 12:45:11;;;;;;;2.47;1.40;;;20.10;61.40;;;;;;5018206;28;20529;-54
2024/04/01 12:47:37;;;;;;;4.53;1.23;;;20.10;61.40;;;;;;5018981;28;20029;-51